Time;durP1;ratioP1;P1;durP2;ratioP2;P2;SDS_P1;SDS_P2;PMS_P1;PMS_P2;Temp;Humidity;BMP_temperature;BMP_pressure;BME280_temperature;BME280_humidity;BME280_pressure;Samples;Min_cycle;Max_cycle;Signal;HPM_P1;HPM_P2
2021/07/05 00:00:58;;;;;;;;;3.00;3.00;;;;;25.89;48.88;100678.91;5015058;28;51578;-44
2021/07/05 00:03:23;;;;;;;;;3.00;3.00;;;;;25.88;48.88;100663.38;5012908;28;52041;-44
2021/07/05 00:05:49;;;;;;;;;3.00;3.00;;;;;25.87;48.79;100670.84;5012028;28;51235;-42
2021/07/05 00:08:14;;;;;;;;;2.00;2.00;;;;;25.86;48.88;100671.97;5013107;28;50977;-43
2021/07/05 00:10:40;;;;;;;;;3.00;2.25;;;;;25.87;48.71;100670.03;5016038;27;50838;-42
2021/07/05 00:13:05;;;;;;;;;5.00;3.00;;;;;25.86;48.75;100666.41;5013397;28;51069;-41
2021/07/05 00:15:33;;;;;;;;;2.75;2.50;;;;;25.86;48.84;100666.41;5014900;28;51907;-41
2021/07/05 00:18:02;;;;;;;;;1.75;1.75;;;;;25.85;48.89;100648.09;5026217;27;51672;-42
2021/07/05 00:20:30;;;;;;;;;2.25;2.25;;;;;25.85;49.21;100648.09;5023602;28;51288;-43
2021/07/05 00:22:56;;;;;;;;;3.00;3.00;;;;;25.85;48.93;100650.88;5010619;28;51098;-42
2021/07/05 00:25:22;;;;;;;;;3.25;2.00;;;;;25.85;48.61;100658.34;5013417;28;51245;-43
2021/07/05 00:27:48;;;;;;;;;2.00;1.75;;;;;25.83;48.82;100674.41;5054912;27;51381;-42
2021/07/05 00:30:15;;;;;;;;;2.00;2.00;;;;;25.84;48.56;100667.75;5010552;28;51316;-46
2021/07/05 00:32:41;;;;;;;;;2.00;2.00;;;;;25.83;48.61;100668.84;5012000;28;51032;-43
2021/07/05 00:35:07;;;;;;;;;2.25;2.25;;;;;25.83;48.72;100666.06;5011826;28;51047;-43
2021/07/05 00:37:33;;;;;;;;;3.00;3.00;;;;;25.82;49.04;100673.56;5012099;28;50979;-45
2021/07/05 00:39:58;;;;;;;;;4.00;3.00;;;;;25.82;49.09;100667.19;5027345;28;50988;-47
2021/07/05 00:42:23;;;;;;;;;2.50;2.50;;;;;25.83;48.79;100675.25;5014105;28;51055;-45
2021/07/05 00:44:50;;;;;;;;;3.00;2.00;;;;;25.82;48.94;100653.31;5014224;27;51031;-43
2021/07/05 00:47:16;;;;;;;;;4.00;3.00;;;;;25.81;48.64;100658.03;5013787;28;51097;-43
2021/07/05 00:49:41;;;;;;;;;2.25;2.25;;;;;25.82;48.98;100656.09;5014235;28;51303;-42
2021/07/05 00:52:07;;;;;;;;;1.50;1.50;;;;;25.82;49.37;100650.53;5011924;28;51935;-43
2021/07/05 00:54:32;;;;;;;;;2.50;2.50;;;;;25.82;49.08;100656.09;5008815;28;51067;-43
2021/07/05 00:56:58;;;;;;;;;3.50;3.00;;;;;25.80;48.81;100659.13;5017110;28;51442;-44
2021/07/05 00:59:24;;;;;;;;;3.00;3.00;;;;;25.81;49.06;100668.28;5014653;28;52336;-43
2021/07/05 01:01:50;;;;;;;;;4.00;2.50;;;;;25.81;49.14;100660.78;5016895;28;51865;-42
2021/07/05 01:04:15;;;;;;;;;1.25;1.25;;;;;25.80;48.87;100642.47;5015303;28;51195;-44
2021/07/05 01:06:40;;;;;;;;;1.75;1.75;;;;;25.80;48.85;100634.16;5014700;28;51677;-43
2021/07/05 01:09:06;;;;;;;;;1.25;1.25;;;;;25.80;48.92;100627.75;5014355;28;51098;-44
2021/07/05 01:11:31;;;;;;;;;2.75;2.75;;;;;25.79;48.90;100629.72;5018231;28;51820;-42
2021/07/05 01:13:57;;;;;;;;;3.00;3.00;;;;;25.79;48.80;100615.84;5016258;27;51036;-43
2021/07/05 01:16:22;;;;;;;;;0.25;0.00;;;;;25.79;48.78;100635.25;5014849;28;50980;-42
2021/07/05 01:18:48;;;;;;;;;3.00;3.00;;;;;25.79;48.94;100623.31;5023615;28;51108;-43
2021/07/05 01:21:13;;;;;;;;;2.25;2.25;;;;;25.78;49.03;100616.94;5015609;28;50858;-43
2021/07/05 01:23:38;;;;;;;;;1.75;1.00;;;;;25.77;48.90;100601.41;5015336;28;50965;-43
2021/07/05 01:26:04;;;;;;;;;1.75;1.75;;;;;25.77;48.86;100597.78;5016870;28;51071;-44
2021/07/05 01:28:30;;;;;;;;;2.00;2.00;;;;;25.77;48.64;100597.78;5031716;27;51070;-43
2021/07/05 01:30:55;;;;;;;;;2.00;1.75;;;;;25.77;49.20;100614.44;5013984;28;52185;-44
2021/07/05 01:33:22;;;;;;;;;3.00;2.00;;;;;25.77;48.89;100619.97;5015893;28;51542;-43
2021/07/05 01:35:47;;;;;;;;;2.00;2.00;;;;;25.76;48.80;100602.50;5017966;28;50818;-44
2021/07/05 01:38:16;;;;;;;;;2.25;2.25;;;;;25.76;48.68;100608.06;5031879;27;50887;-43
2021/07/05 01:40:43;;;;;;;;;1.75;1.75;;;;;25.76;48.97;100602.50;5015760;28;51917;-43
2021/07/05 01:43:08;;;;;;;;;2.00;2.00;;;;;25.75;48.90;100606.38;5017008;28;51293;-45
2021/07/05 01:45:34;;;;;;;;;3.25;1.75;;;;;25.75;48.84;100617.47;5015191;28;50992;-45
2021/07/05 01:48:00;;;;;;;;;1.00;1.00;;;;;25.75;48.73;100623.03;5013996;28;51004;-42
2021/07/05 01:50:27;;;;;;;;;3.00;1.50;;;;;25.76;48.95;100626.63;5013852;27;51882;-42
2021/07/05 01:52:54;;;;;;;;;2.25;2.25;;;;;25.75;48.91;100622.19;5013511;28;50982;-43
2021/07/05 01:55:33;;;;;;;;;0.25;0.25;;;;;25.74;48.66;100613.03;5014220;28;51180;-42
2021/07/05 01:58:01;;;;;;;;;2.00;2.00;;;;;25.74;48.84;100624.13;5013041;28;51197;-43
2021/07/05 02:00:28;;;;;;;;;1.50;1.25;;;;;25.75;48.84;100627.72;5014378;27;51143;-44
2021/07/05 02:02:53;;;;;;;;;1.75;1.00;;;;;25.74;48.62;100598.28;5017873;27;51435;-41
2021/07/05 02:05:20;;;;;;;;;1.75;1.75;;;;;25.74;49.07;100610.25;5014912;28;51141;-42
2021/07/05 02:07:47;;;;;;;;;7.00;2.50;;;;;25.73;48.64;100611.31;5014013;28;51035;-43
2021/07/05 02:10:20;;;;;;;;;2.00;2.00;;;;;25.72;48.75;100626.31;5013890;28;51710;-44
2021/07/05 02:12:46;;;;;;;;;1.25;1.25;;;;;25.72;48.84;100622.69;5015346;28;51077;-42
2021/07/05 02:15:13;;;;;;;;;1.00;1.00;;;;;25.71;48.65;100619.06;5016336;27;51134;-41
2021/07/05 02:17:39;;;;;;;;;1.00;1.00;;;;;25.71;48.77;100624.63;5014527;27;51123;-41
2021/07/05 02:20:08;;;;;;;;;1.50;1.50;;;;;25.72;48.76;100614.38;5031765;27;50909;-41
2021/07/05 02:22:33;;;;;;;;;1.50;1.00;;;;;25.71;48.56;100613.53;5015766;27;51445;-42
2021/07/05 02:24:58;;;;;;;;;3.00;1.00;;;;;25.72;48.76;100617.13;5017154;28;50982;-42
2021/07/05 02:27:24;;;;;;;;;4.75;1.25;;;;;25.71;48.62;100607.16;5018205;27;52224;-43
2021/07/05 02:29:50;;;;;;;;;1.25;1.00;;;;;25.69;48.64;100607.38;5020853;27;51042;-42
2021/07/05 02:32:15;;;;;;;;;2.25;1.00;;;;;25.70;48.85;100600.75;5014420;28;51457;-42
2021/07/05 02:34:41;;;;;;;;;1.50;1.50;;;;;25.70;48.87;100611.84;5013810;27;51162;-43
2021/07/05 02:37:06;;;;;;;;;2.75;2.25;;;;;25.70;48.88;100598.00;5013612;28;50939;-42
2021/07/05 02:39:31;;;;;;;;;2.00;2.00;;;;;25.70;48.81;100595.22;5014036;28;50981;-42
2021/07/05 02:41:57;;;;;;;;;1.50;1.50;;;;;25.69;49.03;100585.19;5016460;28;51066;-42
2021/07/05 02:44:22;;;;;;;;;1.00;1.00;;;;;25.70;48.78;100586.91;5020644;28;51091;-43
2021/07/05 02:46:47;;;;;;;;;3.00;2.25;;;;;25.69;48.70;100576.03;5016307;28;50962;-42
2021/07/05 02:49:13;;;;;;;;;0.75;0.75;;;;;25.69;48.75;100574.09;5013344;28;51083;-44
2021/07/05 02:51:38;;;;;;;;;1.00;1.00;;;;;25.69;48.77;100568.53;5013723;28;51058;-42
2021/07/05 02:54:05;;;;;;;;;1.25;1.00;;;;;25.68;48.68;100564.09;5013904;28;51206;-44
2021/07/05 02:56:30;;;;;;;;;3.50;2.50;;;;;25.68;48.53;100566.03;5034813;28;50846;-41
2021/07/05 02:58:56;;;;;;;;;2.00;1.75;;;;;25.69;48.92;100557.44;5032977;28;52622;-41
2021/07/05 03:01:23;;;;;;;;;1.00;1.00;;;;;25.68;48.92;100546.63;5016719;28;51039;-42
2021/07/05 03:03:48;;;;;;;;;2.00;2.00;;;;;25.67;48.81;100556.88;5012823;28;50955;-42
2021/07/05 03:06:14;;;;;;;;;2.00;2.00;;;;;25.67;48.73;100559.66;5016159;28;50993;-42
2021/07/05 03:08:39;;;;;;;;;1.00;1.00;;;;;25.67;48.89;100537.47;5013227;28;52590;-42
2021/07/05 03:11:08;;;;;;;;;2.00;2.00;;;;;25.67;48.56;100544.94;5014362;28;50985;-43
2021/07/05 03:13:33;;;;;;;;;1.00;1.00;;;;;25.67;48.81;100537.47;5013984;28;50997;-44
2021/07/05 03:15:58;;;;;;;;;1.25;1.25;;;;;25.67;48.78;100540.25;5016805;28;51034;-43
2021/07/05 03:18:24;;;;;;;;;2.00;2.00;;;;;25.67;48.66;100542.19;5020077;28;51002;-43
2021/07/05 03:20:51;;;;;;;;;1.00;1.00;;;;;25.66;48.73;100549.66;5029612;28;50963;-43
2021/07/05 03:23:18;;;;;;;;;2.75;2.00;;;;;25.65;48.63;100545.22;5013833;28;51203;-42
2021/07/05 03:25:44;;;;;;;;;2.00;0.50;;;;;25.65;48.74;100550.78;5016492;28;51008;-42
2021/07/05 03:28:13;;;;;;;;;5.00;3.00;;;;;25.65;48.82;100550.78;5015120;27;51946;-43
2021/07/05 03:30:40;;;;;;;;;2.00;1.75;;;;;25.66;49.10;100546.88;5016525;28;51257;-44
2021/07/05 03:33:07;;;;;;;;;3.00;3.00;;;;;25.65;48.78;100536.06;5016342;28;51077;-43
2021/07/05 03:35:32;;;;;;;;;2.00;1.50;;;;;25.66;48.60;100534.97;5013204;28;51098;-42
2021/07/05 03:37:58;;;;;;;;;1.50;1.50;;;;;25.66;48.51;100534.97;5013899;28;51565;-44
2021/07/05 03:40:29;;;;;;;;;1.50;1.50;;;;;25.66;48.52;100534.97;5012211;28;51041;-44
2021/07/05 03:42:55;;;;;;;;;2.75;1.00;;;;;25.65;48.75;100534.13;5012351;28;50983;-42
2021/07/05 03:45:24;;;;;;;;;1.50;1.50;;;;;25.65;48.80;100524.97;5016366;28;50967;-44
2021/07/05 03:47:50;;;;;;;;;2.00;2.00;;;;;25.65;48.77;100522.19;5017794;28;52741;-43
2021/07/05 03:50:18;;;;;;;;;1.00;1.00;;;;;25.63;48.95;100520.50;5012201;28;51011;-43
2021/07/05 03:52:43;;;;;;;;;3.75;3.00;;;;;25.63;48.76;100514.94;5016863;28;51051;-44
2021/07/05 03:55:11;;;;;;;;;4.00;4.00;;;;;25.63;48.53;100511.34;5013744;28;51495;-45
2021/07/05 03:57:37;;;;;;;;;2.00;2.00;;;;;25.63;48.64;100514.09;5013508;28;52742;-44
2021/07/05 04:00:08;;;;;;;;;3.50;2.00;;;;;25.63;48.57;100514.09;5014318;28;50879;-44
2021/07/05 04:02:33;;;;;;;;;2.75;1.25;;;;;25.62;48.90;100512.44;5014971;28;50994;-42
2021/07/05 04:04:58;;;;;;;;;2.00;2.00;;;;;25.62;48.83;100490.25;5013529;28;50919;-43
2021/07/05 04:07:24;;;;;;;;;1.00;1.00;;;;;25.63;48.41;100491.91;5015110;28;51058;-42
2021/07/05 04:09:49;;;;;;;;;5.25;3.50;;;;;25.61;48.55;100483.88;5013095;27;51127;-43
2021/07/05 04:12:19;;;;;;;;;1.00;1.00;;;;;25.62;48.97;100473.59;5014255;28;51014;-43
2021/07/05 04:14:45;;;;;;;;;2.75;2.25;;;;;25.62;48.91;100468.06;5028630;28;51305;-42
2021/07/05 04:17:10;;;;;;;;;3.00;2.00;;;;;25.62;48.61;100468.06;5016118;28;51292;-44
2021/07/05 04:19:36;;;;;;;;;3.25;3.25;;;;;25.60;48.62;100462.78;5014344;27;50948;-42
2021/07/05 04:22:02;;;;;;;;;3.50;3.50;;;;;25.60;48.68;100459.19;5029493;27;51118;-42
2021/07/05 04:24:27;;;;;;;;;3.50;2.75;;;;;25.60;48.65;100465.56;5012277;28;51062;-43
2021/07/05 04:26:53;;;;;;;;;3.75;2.25;;;;;25.60;48.80;100459.19;5032160;27;53966;-45
2021/07/05 04:29:18;;;;;;;;;3.00;2.50;;;;;25.59;48.80;100466.66;5029706;27;50955;-42
2021/07/05 04:31:43;;;;;;;;;4.75;3.25;;;;;25.59;49.03;100463.88;5012785;28;51019;-42
2021/07/05 04:34:09;;;;;;;;;2.25;2.25;;;;;25.58;48.85;100467.78;5011251;28;51263;-42
2021/07/05 04:36:35;;;;;;;;;3.50;3.25;;;;;25.59;49.09;100471.38;5029143;27;52720;-42
2021/07/05 04:39:02;;;;;;;;;3.00;2.00;;;;;25.59;48.95;100463.06;5014161;27;50964;-42
2021/07/05 04:41:27;;;;;;;;;2.00;2.00;;;;;25.59;48.93;100465.81;5012879;28;51126;-43
2021/07/05 04:43:52;;;;;;;;;4.75;4.00;;;;;25.59;48.95;100468.59;5014132;28;51700;-43
2021/07/05 04:46:19;;;;;;;;;2.00;2.00;;;;;25.58;48.88;100466.94;5012160;28;52652;-43
2021/07/05 04:48:45;;;;;;;;;3.75;2.00;;;;;25.57;48.85;100466.09;5013048;28;51127;-43
2021/07/05 04:51:13;;;;;;;;;3.00;3.00;;;;;25.57;48.89;100462.50;5027438;28;51399;-43
2021/07/05 04:53:38;;;;;;;;;2.75;2.00;;;;;25.56;48.76;100450.56;5012406;28;51013;-45
2021/07/05 04:56:05;;;;;;;;;3.50;2.75;;;;;25.56;48.79;100439.47;5011046;28;50922;-44
2021/07/05 04:58:30;;;;;;;;;3.00;1.75;;;;;25.56;48.73;100422.00;5011504;28;51178;-42
2021/07/05 05:00:56;;;;;;;;;2.75;2.75;;;;;25.56;48.77;100402.59;5011817;28;50934;-43
2021/07/05 05:03:21;;;;;;;;;3.25;2.75;;;;;25.55;48.57;100401.75;5016691;28;51233;-42
2021/07/05 05:05:46;;;;;;;;;4.00;2.75;;;;;25.55;48.57;100389.81;5016752;27;51039;-46
2021/07/05 05:08:12;;;;;;;;;3.75;3.00;;;;;25.54;48.68;100385.38;5012476;27;51099;-42
2021/07/05 05:10:39;;;;;;;;;2.25;2.25;;;;;25.54;48.82;100382.59;5013438;28;51118;-44
2021/07/05 05:13:05;;;;;;;;;3.00;3.00;;;;;25.54;48.77;100394.53;5003876;27;51298;-42
2021/07/05 05:15:31;;;;;;;;;3.50;3.50;;;;;25.54;48.71;100393.69;5011488;28;51129;-42
2021/07/05 05:17:56;;;;;;;;;3.50;3.50;;;;;25.53;48.87;100384.53;5014908;27;51124;-41
2021/07/05 05:20:23;;;;;;;;;2.50;1.50;;;;;25.53;48.96;100392.00;5016803;28;51021;-42
2021/07/05 05:22:50;;;;;;;;;4.50;2.25;;;;;25.53;48.67;100379.00;5046115;27;51172;-42
2021/07/05 05:25:17;;;;;;;;;1.75;1.00;;;;;25.53;48.68;100370.69;5014817;28;51569;-42
2021/07/05 05:27:43;;;;;;;;;2.25;2.25;;;;;25.53;48.58;100364.28;5033173;27;50972;-49
2021/07/05 05:30:12;;;;;;;;;1.00;1.00;;;;;25.52;48.56;100371.75;5021755;28;50499;-42
2021/07/05 05:32:37;;;;;;;;;1.75;1.75;;;;;25.52;48.53;100379.25;5008950;28;51229;-42
2021/07/05 05:35:05;;;;;;;;;3.25;2.00;;;;;25.51;48.40;100383.94;5007695;27;51160;-42
2021/07/05 05:37:31;;;;;;;;;3.75;2.00;;;;;25.50;48.52;100382.28;5023671;28;51842;-46
2021/07/05 05:39:57;;;;;;;;;2.50;2.25;;;;;25.50;48.52;100376.75;5010664;28;51184;-47
2021/07/05 05:42:22;;;;;;;;;1.75;1.75;;;;;25.50;48.46;100375.91;5009772;28;51028;-46
2021/07/05 05:44:47;;;;;;;;;1.00;1.00;;;;;25.50;48.48;100379.50;5014190;28;51782;-49
2021/07/05 05:47:13;;;;;;;;;1.75;1.00;;;;;25.50;48.39;100381.44;5010927;28;51171;-42
2021/07/05 05:49:39;;;;;;;;;5.50;2.00;;;;;25.49;48.24;100394.47;5013845;28;51171;-42
2021/07/05 05:52:06;;;;;;;;;2.75;2.75;;;;;25.49;48.59;100407.50;5017818;27;51030;-45
2021/07/05 05:54:31;;;;;;;;;1.25;0.50;;;;;25.49;48.89;100401.97;5012374;28;51898;-43
2021/07/05 05:56:57;;;;;;;;;3.00;1.25;;;;;25.49;48.84;100408.34;5016612;27;51128;-44
2021/07/05 05:59:22;;;;;;;;;3.50;2.00;;;;;25.48;48.86;100409.44;5010331;27;52359;-43
2021/07/05 06:01:49;;;;;;;;;2.25;2.25;;;;;25.48;48.74;100419.72;5014416;28;51046;-44
2021/07/05 06:04:18;;;;;;;;;1.25;1.25;;;;;25.48;48.88;100409.44;5014363;27;51719;-44
2021/07/05 06:06:45;;;;;;;;;5.25;2.00;;;;;25.48;48.72;100397.53;5038248;27;51046;-42
2021/07/05 06:09:11;;;;;;;;;2.00;2.00;;;;;25.47;48.64;100402.25;5010909;27;51350;-45
2021/07/05 06:11:37;;;;;;;;;1.00;1.00;;;;;25.47;48.55;100399.47;5018229;27;50930;-42
2021/07/05 06:14:04;;;;;;;;;2.00;0.75;;;;;25.48;48.46;100412.22;5013382;28;52949;-43
2021/07/05 06:16:31;;;;;;;;;1.25;1.00;;;;;25.46;48.46;100400.56;5011337;28;51004;-43
2021/07/05 06:18:57;;;;;;;;;2.00;2.00;;;;;25.47;48.21;100409.72;5014250;27;51241;-43
2021/07/05 06:21:23;;;;;;;;;1.00;1.00;;;;;25.45;48.11;100403.63;5032145;27;50900;-44
2021/07/05 06:23:48;;;;;;;;;1.00;0.25;;;;;25.44;47.69;100400.00;5017779;28;52590;-42
2021/07/05 06:26:15;;;;;;;;;2.50;1.75;;;;;25.42;47.81;100401.34;5029195;28;50449;-44
2021/07/05 06:28:41;;;;;;;;;0.75;0.75;;;;;25.42;47.85;100409.66;5010070;27;51180;-43
2021/07/05 06:31:07;;;;;;;;;1.00;1.00;;;;;25.41;47.92;100399.69;5012058;28;51250;-43
2021/07/05 06:33:32;;;;;;;;;3.00;1.50;;;;;25.41;47.96;100403.28;5016063;27;52535;-49
2021/07/05 06:35:58;;;;;;;;;1.75;1.00;;;;;25.39;48.18;100397.19;5020563;27;51020;-45
2021/07/05 06:38:24;;;;;;;;;2.00;1.00;;;;;25.40;47.81;100396.06;5016678;28;51085;-48
2021/07/05 06:40:52;;;;;;;;;1.75;1.75;;;;;25.39;48.10;100390.81;5014800;28;51184;-45
2021/07/05 06:43:17;;;;;;;;;1.50;1.00;;;;;25.39;48.05;100394.41;5014777;28;51839;-49
2021/07/05 06:45:43;;;;;;;;;1.00;1.00;;;;;25.39;47.71;100388.88;5011261;28;51190;-43
2021/07/05 06:48:09;;;;;;;;;2.00;2.00;;;;;25.36;47.70;100372.78;5011526;28;51716;-44
2021/07/05 06:50:35;;;;;;;;;4.50;3.00;;;;;25.36;47.75;100374.72;5017302;28;51234;-44
2021/07/05 06:53:01;;;;;;;;;1.75;1.75;;;;;25.36;47.43;100381.09;5013415;28;51890;-44
2021/07/05 06:55:26;;;;;;;;;2.00;2.00;;;;;25.35;47.46;100384.13;5016747;27;50990;-44
2021/07/05 06:57:52;;;;;;;;;1.25;1.25;;;;;25.34;47.56;100391.63;5013968;28;50967;-45
2021/07/05 07:00:21;;;;;;;;;1.50;1.50;;;;;25.33;47.39;100395.50;5014567;28;50907;-44
2021/07/05 07:02:47;;;;;;;;;3.00;3.00;;;;;25.32;47.28;100396.56;5013846;27;51020;-47
2021/07/05 07:05:14;;;;;;;;;1.00;1.00;;;;;25.31;47.20;100401.28;5015911;27;50987;-44
2021/07/05 07:07:42;;;;;;;;;3.00;3.00;;;;;25.28;47.24;100407.34;5014818;28;51228;-46
2021/07/05 07:10:08;;;;;;;;;2.00;2.00;;;;;25.25;46.79;100407.91;5015813;28;51006;-45
2021/07/05 07:12:36;;;;;;;;;1.50;1.25;;;;;25.19;47.17;100403.41;5013461;27;52556;-48
2021/07/05 07:15:05;;;;;;;;;1.00;1.00;;;;;25.13;47.07;100398.94;5016732;28;50951;-45
2021/07/05 07:17:39;;;;;;;;;3.50;2.00;;;;;25.09;47.20;100402.47;5016220;27;50944;-46
2021/07/05 07:20:07;;;;;;;;;2.00;1.50;;;;;25.03;47.26;100402.44;5013859;28;51135;-46
2021/07/05 07:22:33;;;;;;;;;2.75;2.00;;;;;24.99;46.99;100400.41;5015449;28;51110;-47
2021/07/05 07:24:58;;;;;;;;;3.75;1.50;;;;;24.95;47.24;100397.34;5020646;27;50971;-45
2021/07/05 07:27:23;;;;;;;;;5.75;4.00;;;;;24.90;47.35;100393.69;5021380;27;51311;-46
2021/07/05 07:29:48;;;;;;;;;6.75;5.00;;;;;24.85;47.25;100408.31;5023394;27;51350;-47
2021/07/05 07:32:14;;;;;;;;;2.00;2.00;;;;;24.79;47.10;100412.13;5038515;27;51061;-46
2021/07/05 07:34:39;;;;;;;;;2.00;2.00;;;;;24.73;47.06;100408.50;5057918;27;51043;-48
2021/07/05 07:37:06;;;;;;;;;2.00;2.00;;;;;24.67;47.42;100411.47;5043447;27;50957;-49
2021/07/05 07:39:38;;;;;;;;;2.00;2.00;;;;;24.63;47.72;100413.91;5044718;27;51001;-48
2021/07/05 07:42:04;;;;;;;;;2.00;2.00;;;;;24.59;47.42;100414.69;5014915;27;51005;-47
2021/07/05 07:44:29;;;;;;;;;2.00;2.00;;;;;24.54;47.58;100418.25;5044482;27;51075;-46
2021/07/05 07:46:55;;;;;;;;;2.00;1.00;;;;;24.50;47.62;100422.66;5030162;27;51018;-47
2021/07/05 07:49:20;;;;;;;;;4.00;2.75;;;;;24.46;48.02;100415.94;5023327;27;51470;-46
2021/07/05 07:51:46;;;;;;;;;5.50;4.00;;;;;24.41;47.71;100421.41;5041420;27;51963;-49
2021/07/05 07:54:11;;;;;;;;;1.75;1.75;;;;;24.39;47.78;100420.84;5022623;27;51608;-46
2021/07/05 07:56:36;;;;;;;;;6.50;4.00;;;;;24.36;48.02;100416.66;5030085;27;51249;-49
2021/07/05 07:59:02;;;;;;;;;3.00;3.00;;;;;24.31;47.96;100405.53;5025964;27;51169;-46
2021/07/05 08:01:28;;;;;;;;;4.00;4.00;;;;;24.28;48.53;100394.94;5017721;27;51863;-48
2021/07/05 08:03:55;;;;;;;;;4.50;4.50;;;;;24.27;48.28;100392.41;5036991;27;51051;-49
2021/07/05 08:06:21;;;;;;;;;3.00;3.00;;;;;24.25;48.20;100394.59;5018759;27;51212;-49
2021/07/05 08:08:49;;;;;;;;;5.00;4.00;;;;;24.22;48.16;100395.13;5052640;27;51311;-45
2021/07/05 08:11:15;;;;;;;;;4.00;4.00;;;;;24.19;48.40;100385.41;5044833;27;50902;-46
2021/07/05 08:13:40;;;;;;;;;3.50;3.25;;;;;24.20;48.50;100398.16;5031144;27;51067;-44
2021/07/05 08:16:06;;;;;;;;;5.00;5.00;;;;;24.19;48.71;100388.19;5076501;27;51074;-45
2021/07/05 08:18:31;;;;;;;;;3.00;3.00;;;;;24.20;48.72;100389.88;5036486;27;51145;-46
2021/07/05 08:20:57;;;;;;;;;4.50;4.50;;;;;24.22;48.94;100387.66;5025581;27;51770;-45
2021/07/05 08:23:22;;;;;;;;;9.00;7.50;;;;;24.23;49.02;100396.81;5075710;27;50937;-46
2021/07/05 08:25:48;;;;;;;;;7.00;6.50;;;;;24.23;48.75;100402.34;5015243;27;50945;-46
2021/07/05 08:28:14;;;;;;;;;3.25;3.25;;;;;24.23;49.06;100399.56;5023598;27;51154;-46
2021/07/05 08:30:40;;;;;;;;;5.50;5.50;;;;;24.26;48.98;100404.59;5056260;27;51885;-46
2021/07/05 08:33:05;;;;;;;;;5.75;5.75;;;;;24.30;49.47;100414.06;5015450;27;51109;-44
2021/07/05 08:35:31;;;;;;;;;4.75;4.75;;;;;24.33;49.32;100411.63;5036848;27;51119;-47
2021/07/05 08:37:56;;;;;;;;;6.75;5.50;;;;;24.37;49.37;100417.47;5018600;27;51503;-44
2021/07/05 08:40:22;;;;;;;;;4.00;4.00;;;;;24.41;49.17;100422.25;5038697;27;52671;-46
2021/07/05 08:42:48;;;;;;;;;4.50;4.50;;;;;24.45;49.25;100408.72;5044310;27;50541;-46
2021/07/05 08:45:14;;;;;;;;;3.75;3.75;;;;;24.48;49.06;100406.25;5045125;27;51732;-45
2021/07/05 08:47:43;;;;;;;;;6.50;4.75;;;;;24.51;49.20;100407.69;5017497;27;51298;-47
2021/07/05 08:50:12;;;;;;;;;6.00;4.75;;;;;24.54;49.33;100404.41;5038957;27;51189;-48
2021/07/05 08:52:45;;;;;;;;;5.00;5.00;;;;;24.57;48.92;100405.81;5020781;27;51024;-45
2021/07/05 08:55:12;;;;;;;;;4.00;4.00;;;;;24.60;48.97;100410.84;5022653;27;51299;-49
2021/07/05 08:57:40;;;;;;;;;6.00;3.75;;;;;24.62;49.00;100400.34;5063028;27;51445;-46
2021/07/05 09:00:17;;;;;;;;;5.00;3.25;;;;;24.64;48.87;100396.19;5017299;27;51370;-51
2021/07/05 09:02:43;;;;;;;;;5.00;3.50;;;;;24.66;48.94;100402.31;5052531;27;51171;-46
2021/07/05 09:05:09;;;;;;;;;3.75;3.75;;;;;24.71;49.10;100407.09;5053664;27;50966;-46
2021/07/05 09:07:53;;;;;;;;;3.25;3.25;;;;;24.72;49.06;100403.22;5041349;27;51208;-46
2021/07/05 09:10:18;;;;;;;;;3.25;3.25;;;;;24.73;48.88;100399.34;5024215;27;50992;-45
2021/07/05 09:12:44;;;;;;;;;3.50;3.00;;;;;24.74;49.14;100401.84;5035099;27;51211;-46
2021/07/05 09:15:12;;;;;;;;;3.25;2.00;;;;;24.75;49.04;100409.06;5040305;27;50956;-51
2021/07/05 09:17:40;;;;;;;;;4.50;2.00;;;;;24.80;49.06;100404.66;5023991;27;51901;-47
2021/07/05 09:20:14;;;;;;;;;2.75;2.00;;;;;24.82;48.94;100421.88;5058558;27;51775;-45
2021/07/05 09:23:10;;;;;;;;;2.25;2.25;;;;;24.84;48.92;100427.97;5035294;27;51174;-47
2021/07/05 09:25:39;;;;;;;;;3.75;3.75;;;;;24.85;49.18;100429.66;5076733;27;50979;-45
2021/07/05 09:28:05;;;;;;;;;4.00;4.00;;;;;24.87;48.94;100421.91;5047899;27;51310;-45
2021/07/05 09:30:46;;;;;;;;;3.00;3.00;;;;;24.90;49.08;100426.91;5036180;27;51626;-48
2021/07/05 09:33:26;;;;;;;;;3.00;3.00;;;;;24.90;48.95;100424.16;5028679;27;51249;-47
2021/07/05 09:36:00;;;;;;;;;3.00;3.00;;;;;24.91;48.89;100421.16;5029380;27;51079;-49
2021/07/05 09:38:43;;;;;;;;;2.00;2.00;;;;;24.93;48.85;100420.88;5071000;27;51184;-46
2021/07/05 09:41:21;;;;;;;;;3.00;3.00;;;;;24.93;48.73;100420.88;5038362;27;51102;-46
2021/07/05 09:43:53;;;;;;;;;3.25;2.00;;;;;24.94;49.05;100423.38;5046500;27;50874;-49
2021/07/05 09:46:45;;;;;;;;;2.00;2.00;;;;;24.96;49.07;100421.19;5044114;27;51126;-44
2021/07/05 09:49:26;;;;;;;;;2.25;2.25;;;;;24.99;49.08;100422.59;5075164;27;50892;-45
2021/07/05 09:52:24;;;;;;;;;1.75;1.50;;;;;24.99;49.11;100419.81;5034413;27;50904;-46
2021/07/05 09:54:54;;;;;;;;;2.75;2.00;;;;;24.99;48.73;100419.81;5026384;27;51295;-47
2021/07/05 09:57:30;;;;;;;;;1.75;1.75;;;;;25.01;48.68;100428.69;5046887;27;51424;-45
2021/07/05 09:59:57;;;;;;;;;2.50;2.50;;;;;25.01;49.05;100425.91;5064827;27;51118;-46
2021/07/05 10:02:23;;;;;;;;;3.00;3.00;;;;;25.02;49.19;100439.56;5050373;27;52059;-47
2021/07/05 10:04:48;;;;;;;;;3.75;2.00;;;;;25.06;48.98;100434.31;5019033;27;51085;-44
2021/07/05 10:07:15;;;;;;;;;3.00;2.50;;;;;25.07;48.83;100433.22;5027647;27;51087;-48
2021/07/05 10:09:46;;;;;;;;;1.00;1.00;;;;;25.08;48.83;100439.59;5034009;27;51263;-44
2021/07/05 10:12:14;;;;;;;;;4.25;2.25;;;;;25.08;48.58;100440.44;5027757;27;51676;-44
2021/07/05 10:14:40;;;;;;;;;4.75;2.75;;;;;25.09;48.70;100447.66;5039059;27;51053;-44
2021/07/05 10:17:15;;;;;;;;;4.50;3.00;;;;;25.08;48.86;100443.22;5042309;27;51031;-44
2021/07/05 10:19:40;;;;;;;;;1.50;1.25;;;;;25.10;48.85;100442.94;5023959;27;51139;-45
2021/07/05 10:22:05;;;;;;;;;2.00;2.00;;;;;25.10;48.59;100443.78;5068164;27;51078;-44
2021/07/05 10:24:31;;;;;;;;;3.75;3.75;;;;;25.11;48.68;100441.84;5031255;27;51142;-45
2021/07/05 10:26:57;;;;;;;;;1.50;1.50;;;;;25.12;48.61;100427.75;5033445;27;51070;-44
2021/07/05 10:29:23;;;;;;;;;2.00;2.00;;;;;25.13;48.61;100437.72;5029580;27;51463;-45
2021/07/05 10:31:49;;;;;;;;;2.50;2.00;;;;;25.13;48.54;100428.59;5013207;27;51044;-46
2021/07/05 10:34:15;;;;;;;;;0.75;0.75;;;;;25.15;48.52;100432.75;5015238;28;51416;-45
2021/07/05 10:36:42;;;;;;;;;5.75;4.25;;;;;25.16;48.59;100441.91;5035365;27;51181;-44
2021/07/05 10:39:10;;;;;;;;;12.75;11.50;;;;;25.17;48.48;100449.13;5028174;27;50905;-44
2021/07/05 10:41:40;;;;;;;;;10.50;9.50;;;;;25.18;48.26;100451.63;5017036;27;51959;-49
2021/07/05 10:44:09;;;;;;;;;13.50;11.75;;;;;25.20;48.69;100454.13;5013452;27;51130;-44
2021/07/05 10:46:48;;;;;;;;;21.00;14.75;;;;;25.20;48.54;100463.28;5013852;27;50910;-46
2021/07/05 10:49:23;;;;;;;;;16.00;13.75;;;;;25.21;48.61;100467.72;5014409;28;51021;-45
2021/07/05 10:51:48;;;;;;;;;15.50;14.50;;;;;25.23;48.97;100467.47;5015507;27;51798;-44
2021/07/05 10:54:14;;;;;;;;;13.75;12.00;;;;;25.24;48.54;100463.59;5022898;27;51056;-42
2021/07/05 10:56:44;;;;;;;;;15.50;11.00;;;;;25.26;48.66;100465.00;5022422;27;51464;-42
2021/07/05 10:59:13;;;;;;;;;13.00;9.50;;;;;25.27;48.33;100463.06;5033092;27;51217;-42
2021/07/05 11:01:44;;;;;;;;;13.00;9.50;;;;;25.29;48.20;100460.88;5019544;27;52847;-42
2021/07/05 11:04:30;;;;;;;;;12.00;9.75;;;;;25.30;48.42;100460.59;5048595;27;51270;-43
2021/07/05 11:06:59;;;;;;;;;11.00;9.00;;;;;25.32;48.45;100455.66;5003961;28;51061;-47
2021/07/05 11:09:25;;;;;;;;;10.00;9.75;;;;;25.32;48.44;100452.88;5010222;27;51326;-43
2021/07/05 11:11:52;;;;;;;;;10.25;8.00;;;;;25.32;48.23;100469.50;5013925;28;51860;-42
2021/07/05 11:14:22;;;;;;;;;6.75;6.75;;;;;25.34;48.19;100463.69;5014714;28;51097;-44
2021/07/05 11:17:17;;;;;;;;;10.50;9.25;;;;;25.34;48.16;100460.94;5015018;28;51010;-42
2021/07/05 11:19:49;;;;;;;;;8.75;6.75;;;;;25.33;48.19;100454.53;5013485;28;51013;-45
2021/07/05 11:22:31;;;;;;;;;7.00;6.25;;;;;25.33;48.17;100446.22;5013031;28;51828;-45
2021/07/05 11:25:10;;;;;;;;;7.25;7.00;;;;;25.36;48.18;100438.47;5013836;28;50996;-44